Time;durP1;ratioP1;P1;durP2;ratioP2;P2;SDS_P1;SDS_P2;PMS_P1;PMS_P2;Temp;Humidity;BMP_temperature;BMP_pressure;BME280_temperature;BME280_humidity;BME280_pressure;Samples;Min_cycle;Max_cycle;Signal;HPM_P1;HPM_P2
2023/03/22 00:00:50;;;;;;;;;;;8.50;99.90;;;;;;5043460;28;19908;-82
2023/03/22 00:03:16;;;;;;;;;;;8.50;99.90;;;;;;5041890;28;19927;-82
2023/03/22 00:05:41;;;;;;;;;;;8.40;99.90;;;;;;5042656;28;19960;-82
2023/03/22 00:08:07;;;;;;;;;;;8.40;99.90;;;;;;5026672;28;19948;-82
2023/03/22 00:10:35;;;;;;;;;;;8.30;99.90;;;;;;5043385;28;19909;-82
2023/03/22 00:13:00;;;;;;;;;;;8.30;99.90;;;;;;5042619;28;20012;-82
2023/03/22 00:15:28;;;;;;;;;;;8.20;99.90;;;;;;5028126;28;19948;-82
2023/03/22 00:17:54;;;;;;;;;;;8.20;99.90;;;;;;5044501;28;19913;-82
2023/03/22 00:20:22;;;;;;;;;;;8.10;99.90;;;;;;5026411;28;19912;-82
2023/03/22 00:22:48;;;;;;;;;;;8.20;99.90;;;;;;5043447;28;19920;-82
2023/03/22 00:25:14;;;;;;;;;;;8.20;99.90;;;;;;5044832;28;19909;-82
2023/03/22 00:27:40;;;;;;;;;;;8.20;99.90;;;;;;5046000;28;19915;-81
2023/03/22 00:30:06;;;;;;;;;;;8.20;99.90;;;;;;5046556;28;19925;-82
2023/03/22 00:32:35;;;;;;;;;;;8.20;99.90;;;;;;5045297;28;19912;-82
2023/03/22 00:35:01;;;;;;;;;;;8.20;99.90;;;;;;5045234;28;19966;-82
2023/03/22 00:37:32;;;;;;;;;;;8.10;99.90;;;;;;5044109;28;19924;-81
2023/03/22 00:39:58;;;;;;;;;;;8.10;99.90;;;;;;5044458;28;19909;-81
2023/03/22 00:42:24;;;;;;;;;;;8.00;99.90;;;;;;5044382;28;19979;-82
2023/03/22 00:44:50;;;;;;;;;;;7.90;99.90;;;;;;5044097;28;20360;-82
2023/03/22 00:47:15;;;;;;;;;;;7.90;99.90;;;;;;5045102;28;19920;-82
2023/03/22 00:49:41;;;;;;;;;;;7.80;99.90;;;;;;5045080;28;20392;-82
2023/03/22 00:52:06;;;;;;;;;;;7.70;99.90;;;;;;5045972;28;19909;-82
2023/03/22 00:54:32;;;;;;;;;;;7.70;99.90;;;;;;5027913;28;19924;-81
2023/03/22 00:56:57;;;;;;;;;;;7.70;99.90;;;;;;5027730;28;19917;-82
2023/03/22 00:59:23;;;;;;;;;;;7.70;99.90;;;;;;5044892;28;19920;-82
2023/03/22 01:01:49;;;;;;;;;;;7.70;99.90;;;;;;5045043;28;20364;-82
2023/03/22 01:04:16;;;;;;;;;;;7.60;99.90;;;;;;5043601;28;19916;-81
2023/03/22 01:06:42;;;;;;;;;;;7.50;99.90;;;;;;5027525;28;19963;-82
2023/03/22 01:09:13;;;;;;;;;;;7.40;99.90;;;;;;5027601;28;19913;-82
2023/03/22 01:11:39;;;;;;;;;;;7.30;99.90;;;;;;5027411;28;19920;-82
2023/03/22 01:14:08;;;;;;;;;;;7.30;99.90;;;;;;5042366;28;19940;-81
2023/03/22 01:16:35;;;;;;;;;;;7.20;99.90;;;;;;5027541;28;19917;-81
2023/03/22 01:19:01;;;;;;;;;;;7.20;99.90;;;;;;5026678;28;19967;-82
2023/03/22 01:21:26;;;;;;;;;;;7.10;99.90;;;;;;5043597;28;19909;-82
2023/03/22 01:23:52;;;;;;;;;;;7.00;99.90;;;;;;5028138;28;20071;-81
2023/03/22 01:26:17;;;;;;;;;;;6.90;99.90;;;;;;5028047;28;20279;-81
2023/03/22 01:28:43;;;;;;;;;;;6.90;99.90;;;;;;5028150;28;19920;-81
2023/03/22 01:31:08;;;;;;;;;;;6.90;99.90;;;;;;5045550;28;19931;-82
2023/03/22 01:33:34;;;;;;;;;;;6.90;99.90;;;;;;5027580;28;20016;-82
2023/03/22 01:36:00;;;;;;;;;;;6.90;99.90;;;;;;5028694;28;20436;-82
2023/03/22 01:38:25;;;;;;;;;;;6.80;99.90;;;;;;5026864;28;19921;-82
2023/03/22 01:40:51;;;;;;;;;;;6.70;99.90;;;;;;5042708;28;19920;-81
2023/03/22 01:43:16;;;;;;;;;;;6.70;99.90;;;;;;5026827;28;19920;-82
2023/03/22 01:45:51;;;;;;;;;;;6.60;99.90;;;;;;5026352;28;20192;-82
2023/03/22 01:48:20;;;;;;;;;;;6.50;99.90;;;;;;5043575;28;19916;-81
2023/03/22 01:50:54;;;;;;;;;;;6.40;99.90;;;;;;5043820;28;19931;-82
2023/03/22 01:53:22;;;;;;;;;;;6.40;99.90;;;;;;5043614;28;19909;-81
2023/03/22 01:55:48;;;;;;;;;;;6.30;99.90;;;;;;5043120;28;19908;-82
2023/03/22 01:58:16;;;;;;;;;;;6.30;99.90;;;;;;5026372;28;19924;-81
2023/03/22 02:00:43;;;;;;;;;;;6.30;99.90;;;;;;5042650;28;19908;-82
2023/03/22 02:03:09;;;;;;;;;;;6.30;99.90;;;;;;5025292;28;20300;-81
2023/03/22 02:05:35;;;;;;;;;;;6.30;99.90;;;;;;5059380;28;19954;-82
2023/03/22 02:08:03;;;;;;;;;;;6.30;99.90;;;;;;5042192;28;20365;-81
2023/03/22 02:10:29;;;;;;;;;;;6.40;99.90;;;;;;5045851;28;19944;-81
2023/03/22 02:13:09;;;;;;;;;;;6.40;99.90;;;;;;5030076;28;20273;-82
2023/03/22 02:15:41;;;;;;;;;;;6.30;99.90;;;;;;5046299;28;19917;-81
2023/03/22 02:18:10;;;;;;;;;;;6.30;99.90;;;;;;5046603;28;19965;-82
2023/03/22 02:20:40;;;;;;;;;;;6.40;99.90;;;;;;5047986;28;19913;-81
2023/03/22 02:23:21;;;;;;;;;;;6.40;99.90;;;;;;5048492;28;19969;-82
2023/03/22 02:25:50;;;;;;;;;;;6.40;99.90;;;;;;5047524;28;19909;-82
2023/03/22 02:28:39;;;;;;;;;;;6.40;99.90;;;;;;5049219;28;19916;-82
2023/03/22 02:31:10;;;;;;;;;;;6.40;99.90;;;;;;5021488;28;19988;-82
2023/03/22 02:33:51;;;;;;;;;;;6.30;99.90;;;;;;5066721;28;20347;-81
2023/03/22 02:36:18;;;;;;;;;;;6.30;99.90;;;;;;5067424;28;19915;-81
2023/03/22 02:38:47;;;;;;;;;;;6.20;99.90;;;;;;5049055;28;19919;-81
2023/03/22 02:41:15;;;;;;;;;;;6.20;99.90;;;;;;5047918;28;19956;-81
2023/03/22 02:43:55;;;;;;;;;;;6.10;99.90;;;;;;5048740;28;19916;-82
2023/03/22 02:46:34;;;;;;;;;;;6.10;99.90;;;;;;5065721;28;19915;-82
2023/03/22 02:49:06;;;;;;;;;;;6.10;99.90;;;;;;5066367;28;19905;-82
2023/03/22 02:51:35;;;;;;;;;;;6.10;99.90;;;;;;5066106;28;19909;-81
2023/03/22 02:54:02;;;;;;;;;;;6.10;99.90;;;;;;5048440;28;19916;-82
2023/03/22 02:56:30;;;;;;;;;;;6.10;99.90;;;;;;5048204;28;19909;-81
2023/03/22 02:58:58;;;;;;;;;;;6.20;99.90;;;;;;5047635;28;20000;-82
2023/03/22 03:01:24;;;;;;;;;;;6.20;99.90;;;;;;5049537;28;19968;-81
2023/03/22 03:03:51;;;;;;;;;;;6.20;99.90;;;;;;5049089;28;19970;-82
2023/03/22 03:06:18;;;;;;;;;;;6.20;99.90;;;;;;5048678;28;20290;-81
2023/03/22 03:08:45;;;;;;;;;;;6.20;99.90;;;;;;5048195;28;19909;-82
2023/03/22 03:11:11;;;;;;;;;;;6.10;99.90;;;;;;5049015;28;19909;-82
2023/03/22 03:13:37;;;;;;;;;;;6.10;99.90;;;;;;5048943;28;19909;-82
2023/03/22 03:16:06;;;;;;;;;;;6.10;99.90;;;;;;5067107;28;19909;-82
2023/03/22 03:18:44;;;;;;;;;;;6.10;99.90;;;;;;5033291;28;19920;-82
2023/03/22 03:21:23;;;;;;;;;;;6.10;99.90;;;;;;5047627;28;20368;-81
2023/03/22 03:23:53;;;;;;;;;;;6.10;99.90;;;;;;5049341;28;19924;-82
2023/03/22 03:26:42;;;;;;;;;;;6.00;99.90;;;;;;5048640;28;19916;-83
2023/03/22 03:29:15;;;;;;;;;;;6.00;99.90;;;;;;5041235;28;19917;-82
2023/03/22 03:31:59;;;;;;;;;;;6.00;99.90;;;;;;5049287;28;19909;-81
2023/03/22 03:34:48;;;;;;;;;;;6.00;99.90;;;;;;5048501;28;19999;-82
2023/03/22 03:37:29;;;;;;;;;;;6.10;99.90;;;;;;5048246;28;20304;-82
2023/03/22 03:40:01;;;;;;;;;;;6.10;99.90;;;;;;5051121;28;19912;-81
2023/03/22 03:42:27;;;;;;;;;;;6.10;99.90;;;;;;5051351;28;19909;-82
2023/03/22 03:44:54;;;;;;;;;;;6.10;99.90;;;;;;5051324;28;19913;-81
2023/03/22 03:47:20;;;;;;;;;;;6.10;99.90;;;;;;5049922;28;19947;-82
2023/03/22 03:49:46;;;;;;;;;;;6.10;99.90;;;;;;5049373;28;19955;-81
2023/03/22 03:52:12;;;;;;;;;;;6.00;99.90;;;;;;5033529;28;19920;-82
2023/03/22 03:54:37;;;;;;;;;;;5.90;99.90;;;;;;5034232;28;20011;-81
2023/03/22 03:57:03;;;;;;;;;;;5.90;99.90;;;;;;5033467;28;19917;-82
2023/03/22 03:59:29;;;;;;;;;;;5.90;99.90;;;;;;5047160;28;19909;-81
2023/03/22 04:01:54;;;;;;;;;;;5.90;99.90;;;;;;5032359;28;19913;-81
2023/03/22 04:04:25;;;;;;;;;;;5.80;99.90;;;;;;5030949;28;19912;-81
2023/03/22 04:06:55;;;;;;;;;;;5.80;99.90;;;;;;5047476;28;20460;-81
2023/03/22 04:09:26;;;;;;;;;;;5.80;99.90;;;;;;5047122;28;19970;-81
2023/03/22 04:11:52;;;;;;;;;;;5.80;99.90;;;;;;5065479;28;19908;-81
2023/03/22 04:14:17;;;;;;;;;;;5.90;99.90;;;;;;5047131;28;19913;-81
2023/03/22 04:16:43;;;;;;;;;;;5.90;99.90;;;;;;5030523;28;19944;-81
2023/03/22 04:19:09;;;;;;;;;;;5.80;99.90;;;;;;5030032;28;19920;-82
2023/03/22 04:21:34;;;;;;;;;;;5.80;99.90;;;;;;5030205;28;19920;-81
2023/03/22 04:24:00;;;;;;;;;;;5.80;99.90;;;;;;5030732;28;19913;-81
2023/03/22 04:26:25;;;;;;;;;;;5.80;99.90;;;;;;5046684;28;19918;-81
2023/03/22 04:28:51;;;;;;;;;;;5.70;99.90;;;;;;5031624;28;20281;-82
2023/03/22 04:31:17;;;;;;;;;;;5.80;99.90;;;;;;5044782;28;19915;-80
2023/03/22 04:33:46;;;;;;;;;;;5.80;99.90;;;;;;5038559;28;19916;-82
2023/03/22 04:36:14;;;;;;;;;;;5.60;99.90;;;;;;5040127;28;20352;-81
2023/03/22 04:38:41;;;;;;;;;;;5.60;99.90;;;;;;5040521;28;19952;-81
2023/03/22 04:41:07;;;;;;;;;;;5.50;99.90;;;;;;5040912;28;19931;-81
2023/03/22 04:43:33;;;;;;;;;;;5.40;99.90;;;;;;5040177;28;19909;-81
2023/03/22 04:46:00;;;;;;;;;;;5.40;99.90;;;;;;5041399;28;19913;-82
2023/03/22 04:48:26;;;;;;;;;;;5.40;99.90;;;;;;5040921;28;20343;-81
2023/03/22 04:50:52;;;;;;;;;;;5.30;99.90;;;;;;5019575;28;20385;-81
2023/03/22 04:53:18;;;;;;;;;;;5.20;99.90;;;;;;5056435;28;20421;-81
2023/03/22 04:55:44;;;;;;;;;;;5.10;99.90;;;;;;5039756;28;19943;-81
2023/03/22 04:58:10;;;;;;;;;;;5.10;99.90;;;;;;5023784;28;20438;-81
2023/03/22 05:00:36;;;;;;;;;;;5.10;99.90;;;;;;5039521;28;19912;-81
2023/03/22 05:03:02;;;;;;;;;;;5.10;99.90;;;;;;5041486;28;19913;-81
2023/03/22 05:05:28;;;;;;;;;;;5.10;99.90;;;;;;5043073;28;19940;-81
2023/03/22 05:07:55;;;;;;;;;;;5.10;99.90;;;;;;5026326;28;19913;-81
2023/03/22 05:10:20;;;;;;;;;;;5.10;99.90;;;;;;5039656;28;20003;-80
2023/03/22 05:12:46;;;;;;;;;;;5.10;99.90;;;;;;5042313;28;19943;-80
2023/03/22 05:15:12;;;;;;;;;;;5.10;99.90;;;;;;5028297;28;19913;-81
2023/03/22 05:17:38;;;;;;;;;;;5.10;99.90;;;;;;5054593;28;20265;-79
2023/03/22 05:20:08;;;;;;;;;;;5.10;99.90;;;;;;5019390;28;20339;-78
2023/03/22 05:22:39;;;;;;;;;;;5.10;99.90;;;;;;5036157;28;20281;-79
2023/03/22 05:25:05;;;;;;;;;;;5.10;99.90;;;;;;5036433;28;20353;-79
2023/03/22 05:27:33;;;;;;;;;;;5.00;99.90;;;;;;5037239;28;19959;-78
2023/03/22 05:29:59;;;;;;;;;;;4.90;99.90;;;;;;5054031;28;19928;-78
2023/03/22 05:32:28;;;;;;;;;;;4.80;99.90;;;;;;5057179;28;19908;-78
2023/03/22 05:34:54;;;;;;;;;;;4.70;99.90;;;;;;5037613;28;19913;-78
2023/03/22 05:37:20;;;;;;;;;;;4.70;99.90;;;;;;5055276;28;19913;-78
2023/03/22 05:39:45;;;;;;;;;;;4.70;99.90;;;;;;5037315;28;19920;-78
2023/03/22 05:42:11;;;;;;;;;;;4.70;99.90;;;;;;5055699;28;20361;-78
2023/03/22 05:44:37;;;;;;;;;;;4.70;99.90;;;;;;5041725;28;19913;-78
2023/03/22 05:47:03;;;;;;;;;;;4.80;99.90;;;;;;5060981;28;19963;-78
2023/03/22 05:49:29;;;;;;;;;;;4.70;99.90;;;;;;5043929;28;19913;-78
2023/03/22 05:51:55;;;;;;;;;;;4.70;99.90;;;;;;5025229;28;20399;-79
2023/03/22 05:54:21;;;;;;;;;;;4.70;99.90;;;;;;5061649;28;19917;-78
2023/03/22 05:56:46;;;;;;;;;;;4.70;99.90;;;;;;5043695;28;19948;-78
2023/03/22 05:59:12;;;;;;;;;;;4.70;99.90;;;;;;5027371;28;19913;-78
2023/03/22 06:01:38;;;;;;;;;;;4.80;99.90;;;;;;5043752;28;19959;-78
2023/03/22 06:04:03;;;;;;;;;;;4.80;99.90;;;;;;5061948;28;19916;-78
2023/03/22 06:06:29;;;;;;;;;;;4.90;99.90;;;;;;5061720;28;19913;-78
2023/03/22 06:08:55;;;;;;;;;;;5.00;99.90;;;;;;5043618;28;19923;-78
2023/03/22 06:11:21;;;;;;;;;;;5.10;99.90;;;;;;5043714;28;19912;-78
2023/03/22 06:13:47;;;;;;;;;;;5.10;99.90;;;;;;5061904;28;19909;-78
2023/03/22 06:16:12;;;;;;;;;;;5.20;99.90;;;;;;5044056;28;20047;-78
2023/03/22 06:18:38;;;;;;;;;;;5.20;99.90;;;;;;5043504;28;19917;-78
2023/03/22 06:21:04;;;;;;;;;;;5.30;99.90;;;;;;5062039;28;19919;-78
2023/03/22 06:23:29;;;;;;;;;;;5.30;99.90;;;;;;5061989;28;19916;-77
2023/03/22 06:25:55;;;;;;;;;;;5.40;99.90;;;;;;5043712;28;19917;-77
2023/03/22 06:28:21;;;;;;;;;;;5.40;99.90;;;;;;5026981;28;19935;-77
2023/03/22 06:30:46;;;;;;;;;;;5.40;99.90;;;;;;5043341;28;20063;-78
2023/03/22 06:33:12;;;;;;;;;;;5.40;99.90;;;;;;5043572;28;20011;-78
2023/03/22 06:35:37;;;;;;;;;;;5.40;99.90;;;;;;5061075;28;19913;-79
2023/03/22 06:38:03;;;;;;;;;;;5.50;99.90;;;;;;5061182;28;19919;-78
2023/03/22 06:40:29;;;;;;;;;;;5.50;99.90;;;;;;5061022;28;20381;-78
2023/03/22 06:42:54;;;;;;;;;;;5.60;99.90;;;;;;5060993;28;20285;-78
2023/03/22 06:45:20;;;;;;;;;;;5.70;99.90;;;;;;5043312;28;19912;-79
2023/03/22 06:47:46;;;;;;;;;;;5.80;99.90;;;;;;5061030;28;19920;-78
2023/03/22 06:50:14;;;;;;;;;;;5.90;99.90;;;;;;5061088;28;19909;-78
2023/03/22 06:52:39;;;;;;;;;;;5.90;99.90;;;;;;5060850;28;20349;-79
2023/03/22 06:55:05;;;;;;;;;;;5.90;99.90;;;;;;5041529;28;19971;-78
2023/03/22 06:57:31;;;;;;;;;;;5.90;99.90;;;;;;5039646;28;20313;-78
2023/03/22 06:59:56;;;;;;;;;;;6.00;99.90;;;;;;5039513;28;19913;-79
2023/03/22 07:02:22;;;;;;;;;;;6.00;99.90;;;;;;5039803;28;19999;-79
2023/03/22 07:04:47;;;;;;;;;;;6.00;99.90;;;;;;5057770;28;19988;-79
2023/03/22 07:07:13;;;;;;;;;;;6.10;99.90;;;;;;5057639;28;19942;-79
2023/03/22 07:09:39;;;;;;;;;;;6.20;99.90;;;;;;5023014;28;19919;-79
2023/03/22 07:12:05;;;;;;;;;;;6.20;99.90;;;;;;5040047;28;19935;-79
2023/03/22 07:14:31;;;;;;;;;;;6.20;99.90;;;;;;5039438;28;19913;-79
2023/03/22 07:16:57;;;;;;;;;;;6.20;99.90;;;;;;5057313;28;19920;-79
2023/03/22 07:19:23;;;;;;;;;;;6.20;99.90;;;;;;5057629;28;19958;-79
2023/03/22 07:21:48;;;;;;;;;;;6.20;99.90;;;;;;5057453;28;19913;-79
2023/03/22 07:24:14;;;;;;;;;;;6.30;99.90;;;;;;5039589;28;19920;-78
2023/03/22 07:26:39;;;;;;;;;;;6.30;99.90;;;;;;5057993;28;19943;-79
2023/03/22 07:29:05;;;;;;;;;;;6.40;99.90;;;;;;5057063;28;19932;-79
2023/03/22 07:31:34;;;;;;;;;;;6.50;99.90;;;;;;5039622;28;19920;-79
2023/03/22 07:34:00;;;;;;;;;;;6.60;99.90;;;;;;5040412;28;19920;-78
2023/03/22 07:36:25;;;;;;;;;;;6.70;99.90;;;;;;5057279;28;19913;-79
2023/03/22 07:38:51;;;;;;;;;;;6.80;99.90;;;;;;5038869;28;19923;-78
2023/03/22 07:41:17;;;;;;;;;;;7.00;99.90;;;;;;5057123;28;19912;-78
2023/03/22 07:43:43;;;;;;;;;;;7.10;99.90;;;;;;5039020;28;19909;-79
2023/03/22 07:46:08;;;;;;;;;;;7.20;99.90;;;;;;5039181;28;19959;-79
2023/03/22 07:48:35;;;;;;;;;;;7.40;99.90;;;;;;5056975;28;19936;-79
2023/03/22 07:51:00;;;;;;;;;;;7.40;99.90;;;;;;5057594;28;19909;-78
2023/03/22 07:53:26;;;;;;;;;;;7.50;99.90;;;;;;5057971;28;19913;-79
2023/03/22 07:55:52;;;;;;;;;;;7.70;99.90;;;;;;5056932;28;19953;-79
2023/03/22 07:58:18;;;;;;;;;;;7.80;99.90;;;;;;5039434;28;19916;-79
2023/03/22 08:00:43;;;;;;;;;;;7.90;99.90;;;;;;5057258;28;19909;-79
2023/03/22 08:03:13;;;;;;;;;;;8.00;99.90;;;;;;5063445;28;19909;-78
2023/03/22 08:05:39;;;;;;;;;;;8.10;99.90;;;;;;5065950;28;19995;-78
2023/03/22 08:08:06;;;;;;;;;;;8.30;99.90;;;;;;5065685;28;20005;-78
2023/03/22 08:10:32;;;;;;;;;;;8.40;99.90;;;;;;5064211;28;19962;-78
2023/03/22 08:12:57;;;;;;;;;;;8.50;99.90;;;;;;5065517;28;20318;-78
2023/03/22 08:15:23;;;;;;;;;;;8.70;99.90;;;;;;5047829;28;19913;-78
2023/03/22 08:17:49;;;;;;;;;;;8.80;99.90;;;;;;5028178;28;19920;-78
2023/03/22 08:20:17;;;;;;;;;;;8.90;99.90;;;;;;5025961;28;19913;-79
2023/03/22 08:22:43;;;;;;;;;;;9.10;99.90;;;;;;5042251;28;19913;-79
2023/03/22 08:25:09;;;;;;;;;;;9.20;99.90;;;;;;5041534;28;20384;-79
2023/03/22 08:27:34;;;;;;;;;;;9.40;99.90;;;;;;5041270;28;19966;-79
2023/03/22 08:30:01;;;;;;;;;;;9.50;99.90;;;;;;5041472;28;19924;-79
2023/03/22 08:32:26;;;;;;;;;;;9.60;99.90;;;;;;5040635;28;19912;-79
2023/03/22 08:34:52;;;;;;;;;;;9.70;99.90;;;;;;5058605;28;19985;-79
2023/03/22 08:37:19;;;;;;;;;;;9.80;99.90;;;;;;5039998;28;19944;-79
2023/03/22 08:39:45;;;;;;;;;;;10.00;99.90;;;;;;5058207;28;19956;-79
2023/03/22 08:42:10;;;;;;;;;;;10.10;99.90;;;;;;5023467;28;19920;-79
2023/03/22 08:44:36;;;;;;;;;;;10.20;99.90;;;;;;5058378;28;19956;-79
2023/03/22 08:47:02;;;;;;;;;;;10.20;99.90;;;;;;5022841;28;19920;-79
2023/03/22 08:49:28;;;;;;;;;;;10.40;99.90;;;;;;5057827;28;19948;-79
2023/03/22 08:51:53;;;;;;;;;;;10.50;99.90;;;;;;5057505;28;19909;-79
2023/03/22 08:54:19;;;;;;;;;;;10.60;99.90;;;;;;5057273;28;19939;-79
2023/03/22 08:56:45;;;;;;;;;;;10.80;99.90;;;;;;5039044;28;19923;-79
2023/03/22 08:59:11;;;;;;;;;;;10.90;99.90;;;;;;5056713;28;20280;-79
2023/03/22 09:01:36;;;;;;;;;;;11.00;99.90;;;;;;5056819;28;19913;-79
2023/03/22 09:04:02;;;;;;;;;;;11.20;99.90;;;;;;5056444;28;20429;-79
2023/03/22 09:06:28;;;;;;;;;;;11.30;99.90;;;;;;5056357;28;20353;-79
2023/03/22 09:08:54;;;;;;;;;;;11.50;99.90;;;;;;5039136;28;19920;-79
2023/03/22 09:11:20;;;;;;;;;;;11.60;99.90;;;;;;5038469;28;19908;-79
2023/03/22 09:13:46;;;;;;;;;;;11.70;99.90;;;;;;5038416;28;19920;-79
2023/03/22 09:16:11;;;;;;;;;;;11.90;99.90;;;;;;5038085;28;20388;-79
2023/03/22 09:18:37;;;;;;;;;;;12.00;99.90;;;;;;5020834;28;19916;-79
2023/03/22 09:21:04;;;;;;;;;;;12.10;99.90;;;;;;5055756;28;19962;-79
2023/03/22 09:23:31;;;;;;;;;;;12.20;99.90;;;;;;5055824;28;19909;-79
2023/03/22 09:25:59;;;;;;;;;;;12.30;99.90;;;;;;5055992;28;19917;-79
2023/03/22 09:28:25;;;;;;;;;;;12.40;99.90;;;;;;5055581;28;19999;-78
2023/03/22 09:30:50;;;;;;;;;;;12.50;99.90;;;;;;5037706;28;19970;-79
2023/03/22 09:33:16;;;;;;;;;;;12.70;99.90;;;;;;5020840;28;19953;-79
2023/03/22 09:35:42;;;;;;;;;;;12.80;99.90;;;;;;5037764;28;20019;-79
2023/03/22 09:38:08;;;;;;;;;;;13.00;99.90;;;;;;5055984;28;20079;-79
2023/03/22 09:40:36;;;;;;;;;;;13.10;99.90;;;;;;5055260;28;19933;-79
2023/03/22 09:43:03;;;;;;;;;;;13.20;99.10;;;;;;5055483;28;19909;-79
2023/03/22 09:45:38;;;;;;;;;;;13.30;97.50;;;;;;5055466;28;19909;-79
2023/03/22 09:48:05;;;;;;;;;;;13.40;96.50;;;;;;5055383;28;19909;-79
2023/03/22 09:50:32;;;;;;;;;;;13.60;98.50;;;;;;5055244;28;19932;-79
2023/03/22 09:52:58;;;;;;;;;;;13.70;98.30;;;;;;5055762;28;20368;-78
2023/03/22 09:55:44;;;;;;;;;;;13.80;97.10;;;;;;5037300;28;20015;-79
2023/03/22 09:58:16;;;;;;;;;;;14.00;94.10;;;;;;5054655;28;19919;-78
2023/03/22 10:00:47;;;;;;;;;;;14.10;93.70;;;;;;5037618;28;19908;-78
2023/03/22 10:03:23;;;;;;;;;;;14.20;94.30;;;;;;5054539;28;19909;-78
2023/03/22 10:05:51;;;;;;;;;;;14.30;93.40;;;;;;5054042;28;20013;-79
2023/03/22 10:08:27;;;;;;;;;;;14.40;92.10;;;;;;5035682;28;19948;-78
2023/03/22 10:10:53;;;;;;;;;;;14.50;91.50;;;;;;5053678;28;19909;-78
2023/03/22 10:13:40;;;;;;;;;;;14.60;90.90;;;;;;5053590;28;19913;-78
2023/03/22 10:16:09;;;;;;;;;;;14.70;89.90;;;;;;5053966;28;20003;-78
2023/03/22 10:18:36;;;;;;;;;;;14.80;90.40;;;;;;5053423;28;19959;-79
2023/03/22 10:21:10;;;;;;;;;;;15.00;86.80;;;;;;5053602;28;19909;-78
2023/03/22 10:23:41;;;;;;;;;;;15.10;84.40;;;;;;5053418;28;19909;-78
2023/03/22 10:26:07;;;;;;;;;;;15.20;85.80;;;;;;5053636;28;20004;-78
2023/03/22 10:28:33;;;;;;;;;;;15.30;85.90;;;;;;5053913;28;19996;-77
2023/03/22 10:30:59;;;;;;;;;;;15.40;87.20;;;;;;5039068;28;20384;-77
2023/03/22 10:33:32;;;;;;;;;;;15.50;85.90;;;;;;5040560;28;20311;-77
2023/03/22 10:35:58;;;;;;;;;;;15.60;88.50;;;;;;5057380;28;19916;-78
2023/03/22 10:38:26;;;;;;;;;;;15.70;88.40;;;;;;5039616;28;19966;-78
2023/03/22 10:40:53;;;;;;;;;;;15.80;84.00;;;;;;5039862;28;19915;-78
2023/03/22 10:43:34;;;;;;;;;;;16.00;89.10;;;;;;5057198;28;19909;-79
2023/03/22 10:46:01;;;;;;;;;;;16.10;88.10;;;;;;5057539;28;20272;-78
2023/03/22 10:48:31;;;;;;;;;;;16.20;83.70;;;;;;5039218;28;19978;-78
2023/03/22 10:50:58;;;;;;;;;;;16.30;82.60;;;;;;5057226;28;19952;-78
2023/03/22 10:53:30;;;;;;;;;;;16.40;81.00;;;;;;5039273;28;20289;-78
2023/03/22 10:55:56;;;;;;;;;;;16.50;79.00;;;;;;5057477;28;19936;-78
2023/03/22 10:58:27;;;;;;;;;;;16.50;75.70;;;;;;5039308;28;20395;-79
2023/03/22 11:00:55;;;;;;;;;;;16.60;72.20;;;;;;5057979;28;19913;-78
2023/03/22 11:03:36;;;;;;;;;;;16.70;67.60;;;;;;5057605;28;19909;-79
2023/03/22 11:06:16;;;;;;;;;;;16.80;63.80;;;;;;5040338;28;19916;-79
2023/03/22 11:08:46;;;;;;;;;;;16.90;66.70;;;;;;5057812;28;19915;-79
2023/03/22 11:11:25;;;;;;;;;;;17.00;64.90;;;;;;5040096;28;19909;-78
2023/03/22 11:13:58;;;;;;;;;;;17.10;61.30;;;;;;5058153;28;19931;-79
2023/03/22 11:16:24;;;;;;;;;;;17.20;59.80;;;;;;5040675;28;19909;-79
2023/03/22 11:18:50;;;;;;;;;;;17.30;61.20;;;;;;5040059;28;20330;-79
2023/03/22 11:21:16;;;;;;;;;;;17.40;57.20;;;;;;5058672;28;19913;-79
2023/03/22 11:23:47;;;;;;;;;;;17.40;54.30;;;;;;5059154;28;19920;-79
2023/03/22 11:26:13;;;;;;;;;;;17.40;56.20;;;;;;5058266;28;19915;-79
2023/03/22 11:28:46;;;;;;;;;;;17.60;57.90;;;;;;5040581;28;20066;-78
2023/03/22 11:31:13;;;;;;;;;;;17.70;57.70;;;;;;5059327;28;19916;-79
2023/03/22 11:33:59;;;;;;;;;;;17.80;57.00;;;;;;5059226;28;19921;-79
2023/03/22 11:36:25;;;;;;;;;;;17.90;59.90;;;;;;5058707;28;19909;-79
2023/03/22 11:38:58;;;;;;;;;;;18.10;58.40;;;;;;5058707;28;19984;-79
2023/03/22 11:41:33;;;;;;;;;;;18.20;55.60;;;;;;5057461;28;20280;-78
2023/03/22 11:44:04;;;;;;;;;;;18.20;53.90;;;;;;5057546;28;19915;-77
2023/03/22 11:46:30;;;;;;;;;;;18.20;54.20;;;;;;5057976;28;19955;-78
2023/03/22 11:48:57;;;;;;;;;;;18.30;51.90;;;;;;5058747;28;19916;-79
2023/03/22 11:51:39;;;;;;;;;;;18.30;52.60;;;;;;5057303;28;19916;-78
2023/03/22 11:54:05;;;;;;;;;;;18.40;49.60;;;;;;5056904;28;19915;-77
2023/03/22 11:56:30;;;;;;;;;;;18.40;54.50;;;;;;5056387;28;19909;-77
2023/03/22 11:58:58;;;;;;;;;;;18.50;50.60;;;;;;5038576;28;19920;-78
2023/03/22 12:01:45;;;;;;;;;;;18.60;52.70;;;;;;5038541;28;19916;-77
2023/03/22 12:04:16;;;;;;;;;;;18.70;55.00;;;;;;5056370;28;20361;-78
2023/03/22 12:06:42;;;;;;;;;;;18.80;51.30;;;;;;5056424;28;19909;-77
2023/03/22 12:09:17;;;;;;;;;;;18.80;48.40;;;;;;5038289;28;19913;-78
2023/03/22 12:11:45;;;;;;;;;;;18.90;53.50;;;;;;5056536;28;19915;-77
2023/03/22 12:14:15;;;;;;;;;;;19.00;51.10;;;;;;5056112;28;19952;-78
2023/03/22 12:16:49;;;;;;;;;;;19.10;49.90;;;;;;5055917;28;20288;-78
2023/03/22 12:19:33;;;;;;;;;;;19.20;53.30;;;;;;5056060;28;19920;-78
2023/03/22 12:21:59;;;;;;;;;;;19.30;49.50;;;;;;5056161;28;19909;-78
2023/03/22 12:24:27;;;;;;;;;;;19.30;52.20;;;;;;5056091;28;19908;-77
2023/03/22 12:26:58;;;;;;;;;;;19.30;51.30;;;;;;5055848;28;20380;-78
2023/03/22 12:29:25;;;;;;;;;;;19.30;50.00;;;;;;5055610;28;19924;-78
2023/03/22 12:32:02;;;;;;;;;;;19.20;51.10;;;;;;5037935;28;19916;-78
2023/03/22 12:34:36;;;;;;;;;;;19.30;53.90;;;;;;5055574;28;20262;-78
2023/03/22 12:37:04;;;;;;;;;;;19.40;55.10;;;;;;5055601;28;19959;-77
2023/03/22 12:39:41;;;;;;;;;;;19.60;53.10;;;;;;5055663;28;19909;-78
2023/03/22 12:42:22;;;;;;;;;;;19.80;55.00;;;;;;5055905;28;20357;-78
2023/03/22 12:44:49;;;;;;;;;;;20.00;52.80;;;;;;5037324;28;20019;-78
2023/03/22 12:47:23;;;;;;;;;;;20.10;53.50;;;;;;5055370;28;20011;-78
2023/03/22 12:49:55;;;;;;;;;;;20.20;52.30;;;;;;5055726;28;19959;-78
2023/03/22 12:52:39;;;;;;;;;;;20.30;53.30;;;;;;5037968;28;20288;-78
2023/03/22 12:55:05;;;;;;;;;;;20.40;51.70;;;;;;5054911;28;20061;-78
2023/03/22 12:57:31;;;;;;;;;;;20.50;51.20;;;;;;5037369;28;20403;-78
2023/03/22 12:59:59;;;;;;;;;;;20.50;52.10;;;;;;5037642;28;19913;-78
2023/03/22 13:02:33;;;;;;;;;;;20.70;55.60;;;;;;5037601;28;20007;-78
2023/03/22 13:05:05;;;;;;;;;;;20.80;51.90;;;;;;5055801;28;19909;-77
2023/03/22 13:07:37;;;;;;;;;;;20.80;50.30;;;;;;5055986;28;19966;-77
2023/03/22 13:10:21;;;;;;;;;;;20.80;52.80;;;;;;5037506;28;19908;-77
2023/03/22 13:13:09;;;;;;;;;;;20.90;54.00;;;;;;5055469;28;19920;-77
2023/03/22 13:15:36;;;;;;;;;;;21.00;53.10;;;;;;5056159;28;19909;-77
2023/03/22 13:18:02;;;;;;;;;;;20.90;54.90;;;;;;5055722;28;19913;-77
2023/03/22 13:20:29;;;;;;;;;;;20.80;51.10;;;;;;5056119;28;19909;-77
2023/03/22 13:22:55;;;;;;;;;;;20.70;49.90;;;;;;5055551;28;19959;-77
2023/03/22 13:25:25;;;;;;;;;;;20.60;51.00;;;;;;5037694;28;19913;-77
2023/03/22 13:27:52;;;;;;;;;;;20.50;48.80;;;;;;5037670;28;19915;-77
2023/03/22 13:30:37;;;;;;;;;;;20.50;51.30;;;;;;5055490;28;19939;-77
2023/03/22 13:33:08;;;;;;;;;;;20.60;49.70;;;;;;5055849;28;19908;-77
2023/03/22 13:35:55;;;;;;;;;;;20.60;48.00;;;;;;5055591;28;19909;-77
2023/03/22 13:38:21;;;;;;;;;;;20.60;49.30;;;;;;5055162;28;20387;-77
2023/03/22 13:40:53;;;;;;;;;;;20.60;50.40;;;;;;5055180;28;19912;-77
2023/03/22 13:43:37;;;;;;;;;;;20.50;49.60;;;;;;5055134;28;20419;-77
2023/03/22 13:46:15;;;;;;;;;;;20.60;48.30;;;;;;5055039;28;20357;-78
2023/03/22 13:48:46;;;;;;;;;;;20.70;50.50;;;;;;5054875;28;19909;-78
2023/03/22 13:51:14;;;;;;;;;;;20.80;49.90;;;;;;5054779;28;19916;-78
2023/03/22 13:53:42;;;;;;;;;;;20.90;50.60;;;;;;5054707;28;20376;-77
2023/03/22 13:56:11;;;;;;;;;;;21.00;52.90;;;;;;5055387;28;19909;-77
2023/03/22 13:58:36;;;;;;;;;;;21.00;49.80;;;;;;5054851;28;20379;-78
2023/03/22 14:01:04;;;;;;;;;;;21.10;50.20;;;;;;5054997;28;19909;-78
2023/03/22 14:03:31;;;;;;;;;;;21.00;48.70;;;;;;5055191;28;19917;-77
2023/03/22 14:06:03;;;;;;;;;;;20.90;50.90;;;;;;5057942;28;20296;-77
2023/03/22 14:08:29;;;;;;;;;;;21.00;48.80;;;;;;5058548;28;20245;-77
2023/03/22 14:11:01;;;;;;;;;;;21.10;50.90;;;;;;5040887;28;20058;-77
2023/03/22 14:13:30;;;;;;;;;;;21.30;48.90;;;;;;5041300;28;20019;-77
2023/03/22 14:15:57;;;;;;;;;;;21.40;48.60;;;;;;5059051;28;19916;-77
2023/03/22 14:18:27;;;;;;;;;;;21.40;49.40;;;;;;5058721;28;20361;-78
2023/03/22 14:20:56;;;;;;;;;;;21.40;49.30;;;;;;5059092;28;19995;-77
2023/03/22 14:23:26;;;;;;;;;;;21.30;47.90;;;;;;5058675;28;19952;-77
2023/03/22 14:25:56;;;;;;;;;;;21.30;51.90;;;;;;5040648;28;19944;-78
2023/03/22 14:28:31;;;;;;;;;;;21.30;48.10;;;;;;5058798;28;19917;-78
2023/03/22 14:30:57;;;;;;;;;;;21.30;48.60;;;;;;5059085;28;19951;-77